Naikai2 — JD2433 — position and weather

sailwx.info

Track history (hours):
 
Tides and Currents Weather Stations Pressure Air Temp Water Temp Dewpoint Dewpoint Depression Visibility Wind Speed Wind Dir Waves Ship Positions

Naikai2

Last reported at 2017-Apr-23 05:15 UTC. Time now 2017-Apr-23 14:00 UTC.
Position N 34°38' E 135°11'.

Length 28 m; draft 2.2 m.

Type: Other ship. MMSI: 431000283.

Date/timePositionNaut miles runAvg speedWind from/ knotsBaromVisibWave heightAir tempDewpointWater temp
2017-Apr-23 05:15N 34°38' E 135°11'414.2
2017-Apr-23 05:00N 34°36' E 135°15'714.2
2017-Apr-23 04:30N 34°34' E 135°23'3 5.2
2017-Apr-23 04:00N 34°33' E 135°26'1 2.3
2017-Apr-23 03:30N 34°33' E 135°24'5 9.0
2017-Apr-23 03:00N 34°33' E 135°19'612.1
2017-Apr-23 02:30N 34°37' E 135°13'3 6.3
2017-Apr-23 02:00N 34°39' E 135°10'0 0.0
2017-Apr-23 01:30N 34°39' E 135°10'0 0.1
2017-Apr-22 23:11N 34°39' E 135°10'212.8
2017-Apr-22 23:00N 34°37' E 135°08'712.7
2017-Apr-22 22:30N 34°38' E 134°60'1 1.6
2017-Apr-22 21:58N 34°38' E 135°01'511.4
2017-Apr-22 21:30N 34°35' E 135°07'4 8.3
2017-Apr-22 21:00N 34°38' E 135°10'1 1.4
2017-Apr-22 20:30N 34°39' E 135°10'0 0.0
2017-Apr-22 20:00N 34°39' E 135°10'1 0.1
2017-Apr-22 03:50N 34°39' E 135°11'1 3.7
2017-Apr-22 03:30N 34°40' E 135°11'4 7.2
2017-Apr-22 03:01N 34°39' E 135°15'714.5
2017-Apr-22 02:30N 34°35' E 135°22'2 4.4
2017-Apr-22 02:00N 34°33' E 135°24'3 6.2
2017-Apr-22 01:30N 34°33' E 135°20'3 5.3
2017-Apr-22 01:00N 34°33' E 135°17'611.8
2017-Apr-22 00:30N 34°37' E 135°12'2 0.8
2017-Apr-21 21:48N 34°38' E 135°10'413.9
2017-Apr-21 21:30N 34°37' E 135°05'611.2
2017-Apr-21 21:00N 34°37' E 134°58'611.4
2017-Apr-21 20:31N 34°35' E 135°04'3 5.2
2017-Apr-21 20:00N 34°36' E 135°08'4 7.6
2017-Apr-21 19:30N 34°39' E 135°10'0 0.0
2017-Apr-21 19:00N 34°39' E 135°10'2 0.1
2017-Apr-21 03:43N 34°38' E 135°09'314.6
2017-Apr-21 03:30N 34°36' E 135°06'6 5.7
2017-Apr-21 02:25N 34°37' E 134°58'511.7
2017-Apr-21 02:00N 34°37' E 135°04'510.4
2017-Apr-21 01:30N 34°39' E 135°10'0 0.0
2017-Apr-21 01:00N 34°39' E 135°10'0 0.0
2017-Apr-21 00:30N 34°39' E 135°10'0 0.0
2017-Apr-21 00:00N 34°39' E 135°10'1 0.0
2017-Apr-20 09:05N 34°39' E 135°10'112.9
2017-Apr-20 09:00N 34°38' E 135°09'611.2
2017-Apr-20 08:30N 34°36' E 135°03'5 9.6
2017-Apr-20 08:00N 34°37' E 134°57'713.4
2017-Apr-20 07:30N 34°37' E 135°05'510.0
2017-Apr-20 07:00N 34°39' E 135°10'0 0.0
2017-Apr-20 06:30N 34°39' E 135°10'0 0.0
2017-Apr-20 06:00N 34°39' E 135°10'0 0.0
2017-Apr-20 05:30N 34°39' E 135°10'0 0.0
2017-Apr-20 05:00N 34°39' E 135°10'0 0.0
2017-Apr-20 04:30N 34°39' E 135°10'1 0.0
2017-Apr-19 07:21N 34°38' E 135°10'514.6
2017-Apr-19 07:00N 34°33' E 135°08'814.3
2017-Apr-19 06:27N 34°26' E 135°04'3 1.8
2017-Apr-19 04:55N 34°24' E 135°02'614.7
2017-Apr-19 04:30N 34°27' E 135°08'712.9
2017-Apr-19 04:00N 34°31' E 135°14'611.6
2017-Apr-19 03:31N 34°33' E 135°21'3 4.8
2017-Apr-19 02:57N 34°33' E 135°24'0 1.0
2017-Apr-19 02:27N 34°33' E 135°24'3 7.6
2017-Apr-19 02:00N 34°33' E 135°19'714.7
2017-Apr-19 01:30N 34°37' E 135°12'2 0.5
2017-Apr-18 20:30N 34°39' E 135°10'813.9
2017-Apr-18 19:56N 34°38' E 135°00'2 3.4
2017-Apr-18 19:26N 34°37' E 134°58'4 8.3
2017-Apr-18 19:00N 34°36' E 135°03'3 5.7
2017-Apr-18 18:31N 34°35' E 135°06'5 9.8
2017-Apr-18 18:00N 34°39' E 135°10'0 0.2
2017-Apr-18 17:30N 34°39' E 135°10'0 0.0
2017-Apr-18 17:00N 34°39' E 135°10'1 0.1
2017-Apr-18 03:27N 34°38' E 135°10'614.0
2017-Apr-18 03:00N 34°36' E 135°17'612.1
2017-Apr-18 02:30N 34°33' E 135°24'1 2.1
2017-Apr-18 01:59N 34°33' E 135°23'4 9.0
2017-Apr-18 01:30N 34°33' E 135°18'4 7.6
2017-Apr-18 01:00N 34°31' E 135°14'610.7
2017-Apr-18 00:27N 34°27' E 135°09'1512.0
2017-Apr-17 23:15N 34°15' E 134°59'2 9.7
2017-Apr-17 23:00N 34°13' E 134°59'15 0.8
2017-Apr-17 05:37N 34°27' E 134°58'214.5
2017-Apr-17 05:27N 34°29' E 134°59'614.2
2017-Apr-17 05:01N 34°34' E 135°05'714.3
2017-Apr-17 04:31N 34°39' E 135°11'1 2.8
2017-Apr-17 04:00N 34°40' E 135°11'1 2.5
2017-Apr-17 03:30N 34°39' E 135°10'0 0.0
2017-Apr-16 09:44N 34°39' E 135°10'2 7.8
2017-Apr-16 09:30N 34°37' E 135°09'714.7
2017-Apr-16 09:00N 34°31' E 135°06'814.2
2017-Apr-16 08:25N 34°23' E 135°02'614.3
2017-Apr-16 07:59N 34°17' E 134°59'2 3.3
2017-Apr-16 07:25N 34°19' E 134°59'612.0
2017-Apr-16 06:53N 34°25' E 135°01'512.9
2017-Apr-16 06:29N 34°29' E 135°05'5 9.9
2017-Apr-16 06:00N 34°34' E 135°07'9 0.3
2017-Apr-14 23:40N 34°36' E 134°56'414.4
2017-Apr-14 23:23N 34°37' E 135°01'410.6
2017-Apr-14 23:01N 34°35' E 135°05'3 5.8
2017-Apr-14 22:30N 34°34' E 135°08'5 9.8
2017-Apr-14 22:01N 34°29' E 135°06'1412.1
2017-Apr-14 20:53N 34°17' E 134°59'513.7
2017-Apr-14 20:30N 34°12' E 134°60'1 3.0
2017-Apr-14 20:00N 34°11' E 135°01'1313.9
2017-Apr-14 19:06N 34°23' E 135°00'115.4
2017-Apr-14 19:00N 34°25' E 135°01'815.3
2017-Apr-14 18:30N 34°32' E 135°05'714.4
2017-Apr-14 18:00N 34°38' E 135°10'1 0.0
2017-Apr-13 06:02N 34°38' E 135°10'012.9
2017-Apr-13 06:01N 34°38' E 135°10'814.4
2017-Apr-13 05:29N 34°31' E 135°07'  
Track history (hours):
 
Tides and Currents Weather Stations Pressure Air Temp Water Temp Dewpoint Dewpoint Depression Visibility Wind Speed Wind Dir Waves Ship Positions

Naikai2

Last reported at 2017-Apr-23 05:15 UTC. Time now 2017-Apr-23 14:00 UTC.
Position N 34°38' E 135°11'.

Length 28 m; draft 2.2 m.

Type: Other ship. MMSI: 431000283.

Date/timePositionNaut miles runAvg speedWind from/ knotsBaromVisibWave heightAir tempDewpointWater temp
2017-Apr-23 05:15N 34°38' E 135°11'414.2
2017-Apr-23 05:00N 34°36' E 135°15'714.2
2017-Apr-23 04:30N 34°34' E 135°23'3 5.2
2017-Apr-23 04:00N 34°33' E 135°26'1 2.3
2017-Apr-23 03:30N 34°33' E 135°24'5 9.0
2017-Apr-23 03:00N 34°33' E 135°19'612.1
2017-Apr-23 02:30N 34°37' E 135°13'3 6.3
2017-Apr-23 02:00N 34°39' E 135°10'0 0.0
2017-Apr-23 01:30N 34°39' E 135°10'0 0.1
2017-Apr-22 23:11N 34°39' E 135°10'212.8
2017-Apr-22 23:00N 34°37' E 135°08'712.7
2017-Apr-22 22:30N 34°38' E 134°60'1 1.6
2017-Apr-22 21:58N 34°38' E 135°01'511.4
2017-Apr-22 21:30N 34°35' E 135°07'4 8.3
2017-Apr-22 21:00N 34°38' E 135°10'1 1.4
2017-Apr-22 20:30N 34°39' E 135°10'0 0.0
2017-Apr-22 20:00N 34°39' E 135°10'1 0.1
2017-Apr-22 03:50N 34°39' E 135°11'1 3.7
2017-Apr-22 03:30N 34°40' E 135°11'4 7.2
2017-Apr-22 03:01N 34°39' E 135°15'714.5
2017-Apr-22 02:30N 34°35' E 135°22'2 4.4
2017-Apr-22 02:00N 34°33' E 135°24'3 6.2
2017-Apr-22 01:30N 34°33' E 135°20'3 5.3
2017-Apr-22 01:00N 34°33' E 135°17'611.8
2017-Apr-22 00:30N 34°37' E 135°12'2 0.8
2017-Apr-21 21:48N 34°38' E 135°10'413.9
2017-Apr-21 21:30N 34°37' E 135°05'611.2
2017-Apr-21 21:00N 34°37' E 134°58'611.4
2017-Apr-21 20:31N 34°35' E 135°04'3 5.2
2017-Apr-21 20:00N 34°36' E 135°08'4 7.6
2017-Apr-21 19:30N 34°39' E 135°10'0 0.0
2017-Apr-21 19:00N 34°39' E 135°10'2 0.1
2017-Apr-21 03:43N 34°38' E 135°09'314.6
2017-Apr-21 03:30N 34°36' E 135°06'6 5.7
2017-Apr-21 02:25N 34°37' E 134°58'511.7
2017-Apr-21 02:00N 34°37' E 135°04'510.4
2017-Apr-21 01:30N 34°39' E 135°10'0 0.0
2017-Apr-21 01:00N 34°39' E 135°10'0 0.0
2017-Apr-21 00:30N 34°39' E 135°10'0 0.0
2017-Apr-21 00:00N 34°39' E 135°10'1 0.0
2017-Apr-20 09:05N 34°39' E 135°10'112.9
2017-Apr-20 09:00N 34°38' E 135°09'611.2
2017-Apr-20 08:30N 34°36' E 135°03'5 9.6
2017-Apr-20 08:00N 34°37' E 134°57'713.4
2017-Apr-20 07:30N 34°37' E 135°05'510.0
2017-Apr-20 07:00N 34°39' E 135°10'0 0.0
2017-Apr-20 06:30N 34°39' E 135°10'0 0.0
2017-Apr-20 06:00N 34°39' E 135°10'0 0.0
2017-Apr-20 05:30N 34°39' E 135°10'0 0.0
2017-Apr-20 05:00N 34°39' E 135°10'0 0.0
2017-Apr-20 04:30N 34°39' E 135°10'1 0.0
2017-Apr-19 07:21N 34°38' E 135°10'514.6
2017-Apr-19 07:00N 34°33' E 135°08'814.3
2017-Apr-19 06:27N 34°26' E 135°04'3 1.8
2017-Apr-19 04:55N 34°24' E 135°02'614.7
2017-Apr-19 04:30N 34°27' E 135°08'712.9
2017-Apr-19 04:00N 34°31' E 135°14'611.6
2017-Apr-19 03:31N 34°33' E 135°21'3 4.8
2017-Apr-19 02:57N 34°33' E 135°24'0 1.0
2017-Apr-19 02:27N 34°33' E 135°24'3 7.6
2017-Apr-19 02:00N 34°33' E 135°19'714.7
2017-Apr-19 01:30N 34°37' E 135°12'2 0.5
2017-Apr-18 20:30N 34°39' E 135°10'813.9
2017-Apr-18 19:56N 34°38' E 135°00'2 3.4
2017-Apr-18 19:26N 34°37' E 134°58'4 8.3
2017-Apr-18 19:00N 34°36' E 135°03'3 5.7
2017-Apr-18 18:31N 34°35' E 135°06'5 9.8
2017-Apr-18 18:00N 34°39' E 135°10'0 0.2
2017-Apr-18 17:30N 34°39' E 135°10'0 0.0
2017-Apr-18 17:00N 34°39' E 135°10'1 0.1
2017-Apr-18 03:27N 34°38' E 135°10'614.0
2017-Apr-18 03:00N 34°36' E 135°17'612.1
2017-Apr-18 02:30N 34°33' E 135°24'1 2.1
2017-Apr-18 01:59N 34°33' E 135°23'4 9.0
2017-Apr-18 01:30N 34°33' E 135°18'4 7.6
2017-Apr-18 01:00N 34°31' E 135°14'610.7
2017-Apr-18 00:27N 34°27' E 135°09'1512.0
2017-Apr-17 23:15N 34°15' E 134°59'2 9.7
2017-Apr-17 23:00N 34°13' E 134°59'15 0.8
2017-Apr-17 05:37N 34°27' E 134°58'214.5
2017-Apr-17 05:27N 34°29' E 134°59'614.2
2017-Apr-17 05:01N 34°34' E 135°05'714.3
2017-Apr-17 04:31N 34°39' E 135°11'1 2.8
2017-Apr-17 04:00N 34°40' E 135°11'1 2.5
2017-Apr-17 03:30N 34°39' E 135°10'0 0.0
2017-Apr-16 09:44N 34°39' E 135°10'2 7.8
2017-Apr-16 09:30N 34°37' E 135°09'714.7
2017-Apr-16 09:00N 34°31' E 135°06'814.2
2017-Apr-16 08:25N 34°23' E 135°02'614.3
2017-Apr-16 07:59N 34°17' E 134°59'2 3.3
2017-Apr-16 07:25N 34°19' E 134°59'612.0
2017-Apr-16 06:53N 34°25' E 135°01'512.9
2017-Apr-16 06:29N 34°29' E 135°05'5 9.9
2017-Apr-16 06:00N 34°34' E 135°07'9 0.3
2017-Apr-14 23:40N 34°36' E 134°56'414.4
2017-Apr-14 23:23N 34°37' E 135°01'410.6
2017-Apr-14 23:01N 34°35' E 135°05'3 5.8
2017-Apr-14 22:30N 34°34' E 135°08'5 9.8
2017-Apr-14 22:01N 34°29' E 135°06'1412.1
2017-Apr-14 20:53N 34°17' E 134°59'513.7
2017-Apr-14 20:30N 34°12' E 134°60'1 3.0
2017-Apr-14 20:00N 34°11' E 135°01'1313.9
2017-Apr-14 19:06N 34°23' E 135°00'115.4
2017-Apr-14 19:00N 34°25' E 135°01'815.3
2017-Apr-14 18:30N 34°32' E 135°05'714.4
2017-Apr-14 18:00N 34°38' E 135°10'1 0.0
2017-Apr-13 06:02N 34°38' E 135°10'012.9
2017-Apr-13 06:01N 34°38' E 135°10'814.4
2017-Apr-13 05:29N 34°31' E 135°07'  

Dump ship's entire track history